Time;durP1;ratioP1;P1;durP2;ratioP2;P2;SDS_P1;SDS_P2;PMS_P1;PMS_P2;Temp;Humidity;BMP_temperature;BMP_pressure;BME280_temperature;BME280_humidity;BME280_pressure;Samples;Min_cycle;Max_cycle;Signal;HPM_P1;HPM_P2
2022/10/06 00:01:08;;;;;;;3.90;3.70;;;16.90;99.90;;;;;;5031741;28;20178;-65
2022/10/06 00:03:36;;;;;;;3.80;3.60;;;16.70;99.90;;;;;;5032341;28;20412;-65
2022/10/06 00:06:03;;;;;;;3.40;3.30;;;16.50;99.90;;;;;;5013291;28;20817;-65
2022/10/06 00:08:34;;;;;;;3.50;3.30;;;16.50;99.90;;;;;;5032269;28;20425;-65
2022/10/06 00:11:00;;;;;;;3.40;3.20;;;16.40;99.90;;;;;;5013231;28;20425;-65
2022/10/06 00:13:27;;;;;;;3.60;3.40;;;16.30;99.90;;;;;;4965043;28;20460;-65
2022/10/06 00:15:53;;;;;;;3.27;3.17;;;16.30;99.90;;;;;;5031593;28;20507;-65
2022/10/06 00:18:18;;;;;;;2.93;2.60;;;16.30;99.90;;;;;;5031302;28;21138;-65
2022/10/06 00:20:44;;;;;;;2.93;2.83;;;16.30;99.90;;;;;;5032193;28;20423;-65
2022/10/06 00:23:10;;;;;;;2.80;2.60;;;16.30;99.90;;;;;;5031589;28;20177;-65
2022/10/06 00:25:36;;;;;;;3.37;3.17;;;16.30;99.90;;;;;;5013743;28;20269;-65
2022/10/06 00:28:02;;;;;;;2.90;2.80;;;16.30;99.90;;;;;;5031498;28;20427;-65
2022/10/06 00:30:30;;;;;;;3.50;3.20;;;16.20;99.90;;;;;;5032083;28;20201;-65
2022/10/06 00:33:01;;;;;;;3.30;3.00;;;16.20;99.90;;;;;;5031425;28;20185;-65
2022/10/06 00:35:31;;;;;;;2.83;2.63;;;16.30;99.90;;;;;;5035705;28;20420;-65
2022/10/06 00:37:57;;;;;;;3.23;2.90;;;16.30;99.90;;;;;;5035787;28;20449;-65
2022/10/06 00:40:23;;;;;;;3.40;3.20;;;16.30;99.90;;;;;;5033784;28;20436;-65
2022/10/06 00:42:50;;;;;;;3.23;2.93;;;16.30;99.90;;;;;;5035167;28;20194;-65
2022/10/06 00:45:20;;;;;;;3.10;2.90;;;16.30;99.90;;;;;;5034928;28;20413;-65
2022/10/06 00:47:46;;;;;;;2.80;2.60;;;16.30;99.90;;;;;;5017776;28;20796;-65
2022/10/06 00:50:15;;;;;;;3.10;2.90;;;16.30;99.90;;;;;;5034811;28;20436;-65
2022/10/06 00:52:41;;;;;;;3.20;2.90;;;16.30;99.90;;;;;;5035456;28;20412;-65
2022/10/06 00:55:08;;;;;;;3.17;3.00;;;16.30;99.90;;;;;;5034815;28;20804;-65
2022/10/06 00:57:38;;;;;;;3.80;3.50;;;16.30;99.90;;;;;;5035313;28;20468;-65
2022/10/06 01:00:08;;;;;;;3.63;3.33;;;16.30;99.90;;;;;;5034698;28;20420;-65
2022/10/06 01:02:53;;;;;;;2.70;2.60;;;16.20;99.90;;;;;;5034234;28;21018;-65
2022/10/06 01:05:27;;;;;;;3.23;3.00;;;16.20;99.90;;;;;;5032592;28;20444;-65
2022/10/06 01:07:53;;;;;;;3.77;3.00;;;16.20;99.90;;;;;;5015623;28;20519;-65
2022/10/06 01:10:19;;;;;;;6.70;3.00;;;16.20;99.90;;;;;;5012946;28;20933;-65
2022/10/06 01:12:45;;;;;;;2.73;2.60;;;16.20;99.90;;;;;;4997141;28;20457;-65
2022/10/06 01:15:11;;;;;;;3.70;2.90;;;16.20;99.90;;;;;;5014501;28;20412;-65
2022/10/06 01:17:45;;;;;;;3.33;3.03;;;16.20;99.90;;;;;;5013900;28;20717;-65
2022/10/06 01:20:16;;;;;;;3.33;2.90;;;16.20;99.90;;;;;;5014056;28;20747;-65
2022/10/06 01:22:50;;;;;;;3.10;2.90;;;16.20;99.90;;;;;;5015181;28;20460;-65
2022/10/06 01:25:17;;;;;;;3.50;3.30;;;16.20;99.90;;;;;;5014474;28;20741;-65
2022/10/06 01:27:50;;;;;;;2.87;2.77;;;16.10;99.90;;;;;;5014468;28;20914;-65
2022/10/06 01:30:21;;;;;;;4.70;3.20;;;16.20;99.90;;;;;;5013480;28;20844;-65
2022/10/06 01:32:47;;;;;;;3.17;2.70;;;16.20;99.90;;;;;;5014770;28;20810;-65
2022/10/06 01:35:13;;;;;;;3.23;3.00;;;16.00;99.90;;;;;;5014319;28;20495;-65
2022/10/06 01:37:38;;;;;;;3.57;3.27;;;16.10;99.90;;;;;;5014797;28;20206;-65
2022/10/06 01:40:04;;;;;;;2.90;2.80;;;16.10;99.90;;;;;;5012659;28;20194;-66
2022/10/06 01:42:32;;;;;;;6.93;3.00;;;16.10;99.90;;;;;;5014945;28;20232;-66
2022/10/06 01:44:58;;;;;;;3.23;3.03;;;16.10;99.90;;;;;;5014353;28;20417;-65
2022/10/06 01:47:24;;;;;;;3.20;3.10;;;16.10;99.90;;;;;;5013172;28;20452;-65
2022/10/06 01:49:50;;;;;;;3.30;3.10;;;16.10;99.90;;;;;;5014361;28;20464;-65
2022/10/06 01:52:15;;;;;;;3.93;3.53;;;16.10;99.90;;;;;;5013971;28;20179;-65
2022/10/06 01:54:41;;;;;;;2.90;2.70;;;16.00;99.90;;;;;;5013474;28;20182;-65
2022/10/06 01:57:07;;;;;;;9.03;3.50;;;16.20;99.90;;;;;;5013804;28;20274;-65
2022/10/06 01:59:33;;;;;;;3.30;3.20;;;16.10;99.90;;;;;;5014375;28;20179;-65
2022/10/06 02:01:59;;;;;;;3.00;2.80;;;16.10;99.90;;;;;;5013427;28;20437;-64
2022/10/06 02:04:25;;;;;;;3.40;3.20;;;16.00;99.90;;;;;;5013143;28;21046;-65
2022/10/06 02:06:51;;;;;;;3.60;3.13;;;16.00;99.90;;;;;;5014000;28;20457;-65
2022/10/06 02:09:17;;;;;;;3.07;2.83;;;16.00;99.90;;;;;;4995924;28;20379;-71
2022/10/06 02:11:43;;;;;;;3.70;2.70;;;16.00;99.90;;;;;;5013274;28;20653;-65
2022/10/06 02:14:08;;;;;;;5.43;3.20;;;16.00;99.90;;;;;;5013555;28;20457;-65
2022/10/06 02:16:34;;;;;;;3.40;3.10;;;15.90;99.90;;;;;;5014243;28;20614;-64
2022/10/06 02:19:00;;;;;;;5.70;2.80;;;15.90;99.90;;;;;;5013200;28;20325;-65
2022/10/06 02:21:26;;;;;;;6.33;3.20;;;15.90;99.90;;;;;;5013429;28;20515;-66
2022/10/06 02:23:52;;;;;;;3.63;3.33;;;16.00;99.90;;;;;;5014022;28;20483;-66
2022/10/06 02:26:18;;;;;;;3.20;2.90;;;15.80;99.90;;;;;;4995780;28;20456;-66
2022/10/06 02:28:45;;;;;;;4.23;3.40;;;15.80;99.90;;;;;;5013883;28;20181;-65
2022/10/06 02:31:12;;;;;;;3.60;3.30;;;15.80;99.90;;;;;;5013252;28;20178;-65
2022/10/06 02:33:40;;;;;;;3.77;3.00;;;15.90;99.90;;;;;;5014056;28;20410;-66
2022/10/06 02:36:08;;;;;;;3.90;3.10;;;15.90;99.90;;;;;;5013810;28;20907;-66
2022/10/06 02:38:34;;;;;;;5.87;3.20;;;15.90;99.90;;;;;;5013566;28;20540;-66
2022/10/06 02:41:00;;;;;;;5.20;3.13;;;15.90;99.90;;;;;;5012780;28;21008;-66
2022/10/06 02:43:28;;;;;;;3.90;2.80;;;15.80;99.90;;;;;;5013043;28;20183;-66
2022/10/06 02:45:55;;;;;;;4.77;3.23;;;15.80;99.90;;;;;;4995700;28;20440;-66
2022/10/06 02:48:23;;;;;;;4.00;2.90;;;15.90;99.90;;;;;;5012951;28;20418;-66
2022/10/06 02:51:06;;;;;;;4.23;3.63;;;15.90;99.90;;;;;;5013504;28;20913;-65
2022/10/06 02:53:33;;;;;;;3.53;3.10;;;15.90;99.90;;;;;;4997484;28;20424;-66
2022/10/06 02:56:06;;;;;;;3.30;2.90;;;15.90;99.90;;;;;;5013418;28;20416;-66
2022/10/06 02:58:32;;;;;;;3.40;2.97;;;15.90;99.90;;;;;;5011862;28;20468;-66
2022/10/06 03:01:05;;;;;;;3.37;3.07;;;16.00;99.90;;;;;;5013052;28;20472;-66
2022/10/06 03:03:33;;;;;;;7.70;2.87;;;15.90;99.90;;;;;;5012813;28;20405;-65
2022/10/06 03:06:05;;;;;;;5.03;2.90;;;15.90;99.90;;;;;;5013203;28;20499;-66
2022/10/06 03:08:32;;;;;;;6.13;3.17;;;15.90;99.90;;;;;;5011974;28;20506;-66
2022/10/06 03:11:03;;;;;;;3.20;3.00;;;15.90;99.90;;;;;;5012490;28;20491;-65
2022/10/06 03:13:29;;;;;;;7.07;4.20;;;15.90;99.90;;;;;;5012567;28;20896;-65
2022/10/06 03:15:56;;;;;;;7.03;3.80;;;15.80;99.90;;;;;;5013096;28;20428;-65
2022/10/06 03:18:22;;;;;;;5.60;3.33;;;15.80;99.90;;;;;;5012379;28;20472;-65
2022/10/06 03:20:48;;;;;;;4.10;3.17;;;15.80;99.90;;;;;;4995520;28;20411;-65
2022/10/06 03:23:14;;;;;;;4.40;3.20;;;15.80;99.90;;;;;;5012450;28;20198;-65
2022/10/06 03:25:39;;;;;;;4.60;3.10;;;15.90;99.90;;;;;;5012999;28;20454;-65
2022/10/06 03:28:05;;;;;;;3.70;3.40;;;15.80;99.90;;;;;;5012423;28;20552;-65
2022/10/06 03:30:31;;;;;;;3.63;3.20;;;15.80;99.90;;;;;;5012360;28;20634;-65
2022/10/06 03:33:00;;;;;;;4.87;3.37;;;15.80;99.90;;;;;;5012622;28;20189;-65
2022/10/06 03:35:26;;;;;;;3.53;2.93;;;15.80;99.90;;;;;;5010821;28;20247;-65
2022/10/06 03:37:52;;;;;;;4.40;3.50;;;15.80;99.90;;;;;;5012839;28;20460;-65
2022/10/06 03:40:18;;;;;;;4.80;2.77;;;15.80;99.90;;;;;;5011010;28;20439;-66
2022/10/06 03:42:44;;;;;;;7.60;4.10;;;15.80;99.90;;;;;;4995337;28;20409;-65
2022/10/06 03:45:09;;;;;;;3.63;3.30;;;15.90;99.90;;;;;;5012718;28;20212;-65
2022/10/06 03:47:35;;;;;;;6.40;3.47;;;15.90;99.90;;;;;;5012201;28;20193;-65
2022/10/06 03:50:01;;;;;;;6.60;3.13;;;15.90;99.90;;;;;;5012793;28;20404;-65
2022/10/06 03:52:26;;;;;;;3.17;2.87;;;15.90;99.90;;;;;;5012074;28;20177;-65
2022/10/06 03:54:52;;;;;;;5.70;3.30;;;15.90;99.90;;;;;;5011989;28;20641;-65
2022/10/06 03:57:18;;;;;;;6.57;3.00;;;15.90;99.90;;;;;;5011334;28;20286;-70
2022/10/06 03:59:44;;;;;;;3.57;3.13;;;15.90;99.90;;;;;;4995031;28;20425;-65
2022/10/06 04:02:10;;;;;;;5.00;3.87;;;15.90;99.90;;;;;;4994313;28;20185;-65
2022/10/06 04:04:37;;;;;;;3.07;2.87;;;15.80;99.90;;;;;;5011941;28;20178;-65
2022/10/06 04:07:02;;;;;;;5.50;5.10;;;15.80;99.90;;;;;;5027763;28;20476;-65
2022/10/06 04:09:28;;;;;;;5.57;4.83;;;15.80;99.90;;;;;;5033063;28;20439;-65
2022/10/06 04:11:54;;;;;;;7.70;5.20;;;15.80;99.90;;;;;;4968744;28;20409;-65
2022/10/06 04:14:20;;;;;;;3.30;3.07;;;15.80;99.90;;;;;;5035643;28;20418;-65
2022/10/06 04:16:48;;;;;;;4.60;3.40;;;15.80;99.90;;;;;;5035583;28;20225;-65
2022/10/06 04:19:15;;;;;;;9.40;2.90;;;15.80;99.90;;;;;;5035450;28;20212;-66
2022/10/06 04:21:43;;;;;;;6.33;3.30;;;15.80;99.90;;;;;;5035758;28;20942;-65
2022/10/06 04:24:10;;;;;;;8.80;3.90;;;15.80;99.90;;;;;;5017307;28;20422;-65
2022/10/06 04:26:39;;;;;;;4.97;3.23;;;15.70;99.90;;;;;;5034566;28;20454;-65
2022/10/06 04:29:05;;;;;;;4.37;2.70;;;15.70;99.90;;;;;;5035877;28;20425;-65
2022/10/06 04:31:35;;;;;;;7.40;3.30;;;15.70;99.90;;;;;;5034976;28;20901;-65
2022/10/06 04:34:02;;;;;;;3.10;2.80;;;15.70;99.90;;;;;;5035191;28;20392;-65
2022/10/06 04:36:31;;;;;;;6.17;3.70;;;15.60;99.90;;;;;;5034130;28;20442;-65
2022/10/06 04:38:59;;;;;;;6.53;3.27;;;15.60;99.90;;;;;;5033700;28;20458;-65
2022/10/06 04:41:28;;;;;;;3.70;2.70;;;15.60;99.90;;;;;;5035053;28;20484;-65
2022/10/06 04:43:54;;;;;;;4.87;3.03;;;15.60;99.90;;;;;;5035429;28;20420;-65
2022/10/06 04:46:22;;;;;;;4.07;2.73;;;15.60;99.90;;;;;;5033903;28;20769;-65
2022/10/06 04:48:50;;;;;;;4.37;2.70;;;15.60;99.90;;;;;;5035114;28;20783;-65
2022/10/06 04:51:17;;;;;;;4.80;2.80;;;15.60;99.90;;;;;;5033853;28;21001;-66
2022/10/06 04:53:45;;;;;;;3.93;3.57;;;15.60;99.90;;;;;;5035452;28;20432;-65
2022/10/06 04:56:13;;;;;;;7.30;3.93;;;15.60;99.90;;;;;;5033606;28;20427;-65
2022/10/06 04:58:45;;;;;;;6.30;3.20;;;15.50;99.90;;;;;;5033922;28;20486;-65
2022/10/06 05:01:15;;;;;;;6.03;2.83;;;15.50;99.90;;;;;;5034929;28;20474;-65
2022/10/06 05:03:44;;;;;;;3.60;2.97;;;15.50;99.90;;;;;;5034480;28;20428;-65
2022/10/06 05:06:18;;;;;;;5.47;3.67;;;15.50;99.90;;;;;;5034812;28;20534;-65
2022/10/06 05:08:49;;;;;;;5.37;3.30;;;15.50;99.90;;;;;;5034683;28;20447;-65
2022/10/06 05:11:15;;;;;;;5.10;3.53;;;15.50;99.90;;;;;;5033514;28;20917;-67
2022/10/06 05:13:42;;;;;;;5.73;3.83;;;15.40;99.90;;;;;;5033600;28;20415;-65
2022/10/06 05:16:11;;;;;;;6.00;3.70;;;15.40;99.90;;;;;;5033805;28;20462;-65
2022/10/06 05:18:38;;;;;;;5.73;4.13;;;15.40;99.90;;;;;;5033731;28;20944;-65
2022/10/06 05:21:06;;;;;;;5.73;4.90;;;15.30;99.90;;;;;;5032273;28;20438;-65
2022/10/06 05:23:35;;;;;;;5.77;4.93;;;15.40;99.90;;;;;;5032812;28;20430;-65
2022/10/06 05:26:01;;;;;;;5.53;5.03;;;15.30;99.90;;;;;;5032999;28;20424;-69
2022/10/06 05:28:29;;;;;;;7.67;3.23;;;15.30;99.90;;;;;;5032187;28;20489;-66
2022/10/06 05:30:58;;;;;;;7.53;4.13;;;15.30;99.90;;;;;;5034721;28;20411;-67
2022/10/06 05:33:26;;;;;;;10.80;3.80;;;15.30;99.90;;;;;;5034211;28;20411;-67
2022/10/06 05:35:54;;;;;;;5.03;2.80;;;15.20;99.90;;;;;;5034440;28;20912;-65
2022/10/06 05:38:20;;;;;;;6.00;3.23;;;15.20;99.90;;;;;;5033280;28;20516;-66
2022/10/06 05:40:46;;;;;;;5.03;4.50;;;15.20;99.90;;;;;;5034777;28;20958;-66
2022/10/06 05:43:12;;;;;;;8.13;5.70;;;15.20;99.90;;;;;;5015767;28;20517;-66
2022/10/06 05:45:37;;;;;;;5.00;3.10;;;15.20;99.90;;;;;;5031740;28;20511;-66
2022/10/06 05:48:03;;;;;;;9.40;3.90;;;15.20;99.90;;;;;;5034245;28;20238;-66
2022/10/06 05:50:29;;;;;;;6.47;3.73;;;15.20;99.90;;;;;;5033418;28;20193;-66
2022/10/06 05:52:54;;;;;;;6.70;3.63;;;15.20;99.90;;;;;;5034167;28;20603;-66
2022/10/06 05:55:20;;;;;;;7.07;4.00;;;15.20;99.90;;;;;;5032770;28;20184;-66
2022/10/06 05:57:46;;;;;;;8.17;3.40;;;15.10;99.90;;;;;;5033721;28;20200;-66
2022/10/06 06:00:11;;;;;;;7.37;4.20;;;15.10;99.90;;;;;;5033556;28;20183;-66
2022/10/06 06:02:37;;;;;;;5.03;4.40;;;15.10;99.90;;;;;;5009583;28;20192;-66
2022/10/06 06:05:03;;;;;;;4.80;3.83;;;15.10;99.90;;;;;;5018824;28;20192;-66
2022/10/06 06:07:29;;;;;;;6.43;3.70;;;15.10;99.90;;;;;;5013532;28;20684;-66
2022/10/06 06:09:55;;;;;;;8.70;4.07;;;15.10;99.90;;;;;;5013603;28;20426;-66
2022/10/06 06:12:21;;;;;;;7.90;3.33;;;15.10;99.90;;;;;;5013678;28;20416;-66
2022/10/06 06:17:32;;;;;;;8.07;4.10;;;15.10;99.90;;;;;;5011942;28;20201;-65
2022/10/06 06:19:58;;;;;;;5.20;4.23;;;15.00;99.90;;;;;;5014294;28;20423;-64
2022/10/06 06:22:23;;;;;;;4.90;3.50;;;15.00;99.90;;;;;;5012164;28;20596;-66
2022/10/06 06:24:49;;;;;;;7.33;3.90;;;15.10;99.90;;;;;;5013281;28;20263;-65
2022/10/06 06:27:16;;;;;;;4.27;3.87;;;15.00;99.90;;;;;;5014039;28;20214;-65
2022/10/06 06:29:41;;;;;;;8.10;4.37;;;15.00;99.90;;;;;;4995870;28;20173;-65
2022/10/06 06:32:08;;;;;;;6.13;4.50;;;15.00;99.90;;;;;;5013726;28;20439;-65
2022/10/06 06:34:34;;;;;;;11.60;4.10;;;15.00;99.90;;;;;;5013251;28;20206;-65
2022/10/06 06:37:00;;;;;;;6.07;4.27;;;15.00;99.90;;;;;;5013803;28;20465;-67
2022/10/06 06:39:26;;;;;;;6.13;3.27;;;15.10;99.90;;;;;;4994851;28;20467;-65
2022/10/06 06:41:52;;;;;;;4.73;3.17;;;15.10;99.90;;;;;;5007751;28;20432;-65
2022/10/06 06:44:19;;;;;;;9.77;3.13;;;15.10;99.90;;;;;;4998656;28;20223;-65
2022/10/06 06:46:47;;;;;;;11.33;4.27;;;15.10;99.90;;;;;;5013142;28;20452;-65
2022/10/06 06:49:12;;;;;;;5.97;3.37;;;15.10;99.90;;;;;;5013846;28;20428;-65
2022/10/06 06:51:41;;;;;;;6.40;4.53;;;15.20;99.90;;;;;;5012350;28;20956;-66
2022/10/06 06:54:13;;;;;;;5.50;3.73;;;15.10;99.90;;;;;;5013235;28;20531;-65
2022/10/06 06:56:38;;;;;;;7.37;6.27;;;15.10;99.90;;;;;;5012533;28;20838;-65
2022/10/06 06:59:09;;;;;;;3.00;2.60;;;15.10;99.90;;;;;;5011335;28;20550;-65
2022/10/06 07:01:37;;;;;;;9.10;5.10;;;15.20;99.90;;;;;;5013049;28;20188;-65
2022/10/06 07:04:03;;;;;;;10.10;4.50;;;15.10;99.90;;;;;;5013006;28;20513;-65
2022/10/06 07:06:30;;;;;;;6.57;3.23;;;15.20;99.90;;;;;;5005580;28;20857;-65
2022/10/06 07:08:58;;;;;;;8.50;4.50;;;15.20;99.90;;;;;;5033033;28;20802;-65
2022/10/06 07:11:32;;;;;;;5.37;3.87;;;15.20;99.90;;;;;;5032312;28;20418;-73
2022/10/06 07:14:03;;;;;;;9.43;4.60;;;15.20;99.90;;;;;;5031044;28;20443;-66
2022/10/06 07:25:13;;;;;;;5.70;3.20;;;15.30;99.90;;;;;;5031881;28;20399;-65
2022/10/06 07:27:49;;;;;;;5.23;3.40;;;15.20;99.90;;;;;;5032111;28;20413;-65
2022/10/06 07:30:24;;;;;;;8.47;3.60;;;15.30;99.90;;;;;;5032984;28;20429;-65
2022/10/06 07:32:51;;;;;;;6.40;4.57;;;15.30;99.90;;;;;;5032713;28;20404;-65
2022/10/06 07:35:19;;;;;;;5.10;3.17;;;15.40;99.90;;;;;;5032658;28;20451;-65
2022/10/06 07:37:45;;;;;;;5.73;3.10;;;15.40;99.90;;;;;;5031920;28;20690;-65
2022/10/06 07:40:11;;;;;;;10.00;4.50;;;15.40;99.90;;;;;;5032635;28;20424;-65
2022/10/06 07:42:57;;;;;;;9.20;3.70;;;15.50;99.90;;;;;;5031806;28;20416;-65
2022/10/06 07:45:45;;;;;;;6.17;4.57;;;15.50;99.90;;;;;;5031523;28;20429;-65
2022/10/06 07:48:13;;;;;;;5.90;3.97;;;15.50;99.90;;;;;;5032560;28;20420;-65
2022/10/06 07:50:40;;;;;;;6.40;3.77;;;15.60;99.90;;;;;;5031863;28;20527;-65
2022/10/06 07:53:08;;;;;;;7.40;3.80;;;15.60;99.90;;;;;;5032396;28;20416;-65
2022/10/06 07:55:37;;;;;;;9.17;4.90;;;15.70;99.90;;;;;;4951509;29;20827;-65
2022/10/06 07:58:03;;;;;;;6.10;3.97;;;15.70;99.90;;;;;;4952084;29;20522;-64
2022/10/06 08:00:29;;;;;;;5.97;3.70;;;15.70;99.90;;;;;;4949920;28;20447;-65
2022/10/06 08:02:54;;;;;;;3.90;3.60;;;15.80;99.90;;;;;;4952190;29;20195;-65
2022/10/06 08:05:21;;;;;;;12.73;4.60;;;15.80;99.90;;;;;;4951751;29;20231;-65
2022/10/06 08:07:47;;;;;;;5.93;3.23;;;15.90;99.90;;;;;;4951433;29;20423;-65
2022/10/06 08:10:13;;;;;;;9.13;3.20;;;15.90;99.90;;;;;;4951994;29;20243;-65
2022/10/06 08:12:39;;;;;;;4.47;3.20;;;15.90;99.90;;;;;;4951336;29;20436;-65
2022/10/06 08:15:10;;;;;;;7.47;4.50;;;15.90;99.90;;;;;;4951768;29;20201;-65
2022/10/06 08:17:36;;;;;;;9.50;3.80;;;16.00;99.90;;;;;;4951299;29;20491;-65
2022/10/06 08:20:04;;;;;;;9.60;3.73;;;16.00;99.90;;;;;;4951815;29;20427;-65
2022/10/06 08:22:30;;;;;;;6.80;3.70;;;16.10;99.90;;;;;;4951232;29;20431;-66
2022/10/06 08:24:59;;;;;;;7.33;3.70;;;16.10;99.90;;;;;;4951848;29;20924;-65
2022/10/06 08:27:27;;;;;;;5.27;3.23;;;16.20;99.90;;;;;;5020596;28;20658;-65
2022/10/06 08:29:54;;;;;;;5.37;2.80;;;16.20;99.90;;;;;;5030183;28;20408;-66
2022/10/06 08:32:20;;;;;;;8.10;4.10;;;16.30;99.90;;;;;;5031834;28;20422;-65
2022/10/06 08:34:47;;;;;;;10.50;4.30;;;16.30;99.90;;;;;;5031042;28;20893;-65
2022/10/06 08:37:22;;;;;;;7.43;3.60;;;16.40;99.90;;;;;;5032055;28;20421;-65
2022/10/06 08:39:52;;;;;;;11.37;4.10;;;16.40;99.90;;;;;;5031167;28;21120;-65
2022/10/06 08:42:41;;;;;;;7.00;4.27;;;16.50;99.90;;;;;;5032142;28;20421;-65
2022/10/06 08:45:30;;;;;;;10.80;4.07;;;16.60;99.90;;;;;;5011897;28;20421;-65
2022/10/06 08:48:12;;;;;;;9.60;3.77;;;16.60;99.90;;;;;;5012322;28;20414;-65
2022/10/06 08:51:07;;;;;;;8.13;3.60;;;16.70;99.90;;;;;;5011643;28;20509;-65
2022/10/06 08:54:01;;;;;;;5.07;3.60;;;16.70;99.90;;;;;;5022027;28;20511;-66
2022/10/06 08:56:43;;;;;;;10.10;4.93;;;16.80;99.90;;;;;;5025729;28;20431;-65
2022/10/06 08:59:09;;;;;;;5.73;3.33;;;16.90;99.90;;;;;;5035524;28;20448;-65
2022/10/06 09:01:46;;;;;;;7.93;3.10;;;16.90;99.90;;;;;;4935143;29;20461;-65
2022/10/06 09:04:30;;;;;;;8.57;2.63;;;17.00;99.90;;;;;;4935875;29;20422;-65
2022/10/06 09:07:12;;;;;;;7.50;3.00;;;17.20;99.90;;;;;;4921427;29;20469;-65
2022/10/06 09:09:50;;;;;;;11.00;4.30;;;17.30;99.90;;;;;;4916177;29;20863;-65
2022/10/06 09:12:19;;;;;;;7.77;2.97;;;17.40;99.90;;;;;;4916750;29;20938;-65
2022/10/06 09:15:01;;;;;;;7.00;3.87;;;17.60;99.90;;;;;;4915899;29;20513;-65
2022/10/06 09:17:39;;;;;;;7.87;3.27;;;17.80;99.00;;;;;;4913713;29;20486;-65
2022/10/06 09:20:32;;;;;;;8.87;3.40;;;17.90;97.80;;;;;;4915635;29;20449;-65
2022/10/06 09:22:59;;;;;;;12.87;4.37;;;18.10;98.00;;;;;;4915955;29;20522;-65
2022/10/06 09:25:27;;;;;;;8.90;3.90;;;18.30;97.60;;;;;;4916331;29;20449;-65
2022/10/06 09:27:59;;;;;;;8.77;3.13;;;18.40;97.50;;;;;;4915713;29;20578;-65
2022/10/06 09:30:26;;;;;;;4.37;2.90;;;18.50;96.50;;;;;;4916406;29;20486;-65
2022/10/06 09:32:59;;;;;;;5.07;3.40;;;18.70;96.30;;;;;;4976428;28;20800;-65
2022/10/06 09:35:27;;;;;;;9.93;3.20;;;18.80;95.90;;;;;;5014742;28;20883;-65
2022/10/06 09:38:03;;;;;;;6.63;4.37;;;19.10;95.40;;;;;;5014229;28;20450;-65
2022/10/06 09:40:49;;;;;;;4.03;3.07;;;19.30;94.20;;;;;;5014873;28;20414;-65
2022/10/06 09:43:27;;;;;;;7.00;3.20;;;19.60;94.30;;;;;;5014830;28;20409;-65
2022/10/06 09:45:55;;;;;;;8.57;3.30;;;19.90;93.60;;;;;;5013465;28;20452;-66
2022/10/06 09:48:25;;;;;;;6.73;4.10;;;20.10;93.10;;;;;;5014698;28;20548;-66
2022/10/06 09:51:14;;;;;;;8.80;3.37;;;20.30;92.60;;;;;;5013373;28;20459;-66
2022/10/06 09:53:41;;;;;;;7.60;3.40;;;20.40;92.50;;;;;;5013159;28;20797;-65
2022/10/06 09:56:18;;;;;;;5.90;3.23;;;20.50;91.50;;;;;;5014565;28;20750;-66
2022/10/06 09:58:55;;;;;;;6.10;3.80;;;20.70;91.50;;;;;;5013896;28;20555;-66
2022/10/06 10:01:26;;;;;;;7.00;3.47;;;20.90;90.60;;;;;;5014574;28;20479;-65
2022/10/06 10:03:59;;;;;;;7.30;3.23;;;21.00;91.10;;;;;;5013588;28;20414;-65
2022/10/06 10:06:30;;;;;;;7.47;3.70;;;21.10;90.70;;;;;;5024263;28;20457;-65
2022/10/06 10:09:16;;;;;;;9.17;4.20;;;21.20;90.00;;;;;;5033771;28;20421;-66
2022/10/06 10:14:26;;;;;;;7.27;3.00;;;21.70;87.40;;;;;;5034087;28;20423;-66
2022/10/06 10:16:51;;;;;;;6.00;3.50;;;22.00;87.30;;;;;;5031494;28;20473;-66
2022/10/06 10:19:26;;;;;;;9.73;3.30;;;22.20;84.90;;;;;;5031593;28;20221;-66
2022/10/06 10:21:55;;;;;;;4.23;2.87;;;22.40;82.20;;;;;;5033334;28;20174;-66
2022/10/06 10:25:08;;;;;;;6.37;3.80;;;22.60;80.00;;;;;;5033836;28;20433;-66
2022/10/06 10:27:51;;;;;;;6.03;5.30;;;22.80;80.00;;;;;;5031909;28;20486;-65
2022/10/06 10:30:17;;;;;;;4.03;3.07;;;23.00;76.50;;;;;;5033712;28;20410;-65
2022/10/06 10:32:54;;;;;;;5.67;5.20;;;23.10;75.10;;;;;;5033111;28;20421;-65
2022/10/06 10:35:33;;;;;;;5.17;3.40;;;23.20;75.60;;;;;;5033627;28;20408;-65
2022/10/06 10:38:21;;;;;;;3.93;3.53;;;23.30;73.70;;;;;;5015987;28;20453;-65
2022/10/06 10:40:50;;;;;;;3.33;3.03;;;23.50;73.10;;;;;;5032688;28;20447;-65
2022/10/06 10:43:28;;;;;;;5.87;4.77;;;23.60;75.20;;;;;;5033435;28;20405;-65
2022/10/06 10:46:10;;;;;;;5.37;2.83;;;23.70;70.60;;;;;;5032946;28;20421;-65
2022/10/06 10:48:48;;;;;;;5.10;4.60;;;23.70;71.50;;;;;;5030529;28;20409;-73
2022/10/06 10:51:20;;;;;;;7.97;2.97;;;23.90;71.50;;;;;;5033408;28;20441;-65
2022/10/06 10:53:50;;;;;;;5.07;2.60;;;24.00;73.40;;;;;;5032787;28;20484;-65
2022/10/06 10:56:18;;;;;;;6.10;3.40;;;24.10;69.40;;;;;;5033275;28;20501;-65
2022/10/06 10:58:48;;;;;;;3.37;2.80;;;24.10;67.30;;;;;;5032543;28;20456;-65
2022/10/06 11:01:56;;;;;;;3.77;2.90;;;23.90;63.80;;;;;;5033276;28;20483;-65
2022/10/06 11:04:22;;;;;;;3.93;3.30;;;23.90;62.00;;;;;;4972050;28;20424;-65
2022/10/06 11:07:24;;;;;;;5.40;2.50;;;23.70;60.70;;;;;;5022670;28;20457;-65
2022/10/06 11:10:15;;;;;;;3.80;3.00;;;23.60;68.50;;;;;;5032472;28;20614;-65
2022/10/06 11:13:21;;;;;;;4.93;3.00;;;23.70;66.10;;;;;;5032127;28;20397;-65
2022/10/06 11:16:23;;;;;;;4.70;3.30;;;23.80;65.20;;;;;;5030891;28;20519;-66
2022/10/06 11:19:03;;;;;;;5.00;3.63;;;23.80;62.90;;;;;;5030829;28;20966;-65
2022/10/06 11:21:41;;;;;;;5.60;3.13;;;23.70;64.10;;;;;;5032570;28;20839;-65
2022/10/06 11:24:16;;;;;;;3.03;2.63;;;23.50;66.80;;;;;;5033082;28;20408;-65
2022/10/06 11:27:06;;;;;;;5.87;3.27;;;23.10;65.50;;;;;;5032247;28;20483;-65
2022/10/06 11:30:00;;;;;;;3.73;2.50;;;23.00;67.50;;;;;;5032804;28;20833;-65
2022/10/06 11:32:47;;;;;;;3.67;2.70;;;23.00;66.10;;;;;;5032774;28;20409;-65
2022/10/06 11:35:20;;;;;;;3.33;2.57;;;22.90;65.80;;;;;;5032731;28;20413;-65
2022/10/06 11:37:56;;;;;;;4.37;3.07;;;23.00;66.10;;;;;;5032098;28;20805;-65
2022/10/06 11:40:46;;;;;;;4.33;2.00;;;23.10;65.00;;;;;;5032579;28;20415;-65
2022/10/06 11:43:33;;;;;;;7.47;2.70;;;23.20;65.80;;;;;;5032657;28;20418;-65
2022/10/06 11:46:02;;;;;;;5.67;3.23;;;23.20;63.50;;;;;;5012877;28;20871;-65
2022/10/06 11:48:29;;;;;;;8.30;3.20;;;23.30;64.30;;;;;;5032651;28;20429;-65
2022/10/06 11:51:16;;;;;;;3.20;2.90;;;23.30;64.20;;;;;;5031898;28;20802;-65
2022/10/06 11:53:44;;;;;;;4.03;2.93;;;23.20;67.20;;;;;;5031819;28;20817;-66
2022/10/06 11:56:16;;;;;;;3.27;2.30;;;23.10;64.20;;;;;;5032337;28;20822;-65
2022/10/06 11:58:51;;;;;;;4.67;2.87;;;23.10;65.50;;;;;;5031504;28;20816;-65
2022/10/06 12:01:42;;;;;;;2.70;2.40;;;22.90;66.00;;;;;;5032464;28;20482;-65
2022/10/06 12:04:08;;;;;;;3.57;2.50;;;22.80;65.70;;;;;;5032667;28;20409;-65
2022/10/06 12:06:46;;;;;;;4.10;3.10;;;22.70;64.90;;;;;;5014317;28;20986;-65
2022/10/06 12:09:36;;;;;;;8.97;2.90;;;22.50;67.20;;;;;;5032313;28;20178;-65
2022/10/06 12:12:16;;;;;;;4.73;2.80;;;22.30;66.30;;;;;;5031788;28;20405;-65
2022/10/06 12:15:11;;;;;;;3.07;2.23;;;22.20;67.80;;;;;;5030727;28;20499;-67
2022/10/06 12:17:45;;;;;;;3.60;2.70;;;22.10;65.10;;;;;;5032161;28;20488;-65
2022/10/06 12:20:33;;;;;;;4.40;2.90;;;22.00;66.30;;;;;;5031945;28;20408;-65
2022/10/06 12:23:07;;;;;;;5.60;2.60;;;21.80;67.60;;;;;;5031607;28;20768;-65
2022/10/06 12:25:45;;;;;;;4.47;3.10;;;21.70;64.00;;;;;;5032232;28;20444;-65
2022/10/06 12:28:29;;;;;;;3.60;3.00;;;21.50;66.80;;;;;;5030965;28;20821;-65
2022/10/06 12:31:09;;;;;;;3.00;2.67;;;21.40;67.60;;;;;;5034313;28;20403;-65
2022/10/06 12:33:40;;;;;;;5.00;2.60;;;21.20;68.30;;;;;;5035990;28;20389;-65
2022/10/06 12:36:22;;;;;;;3.53;2.57;;;21.10;66.40;;;;;;5035347;28;20472;-66
2022/10/06 12:39:05;;;;;;;4.50;3.13;;;21.00;67.20;;;;;;5035251;28;20838;-65
2022/10/06 12:41:53;;;;;;;3.73;2.57;;;21.00;67.60;;;;;;5035558;28;20406;-65
2022/10/06 12:44:25;;;;;;;3.20;2.60;;;20.90;67.00;;;;;;5017831;28;20421;-65
2022/10/06 12:46:53;;;;;;;3.73;2.73;;;20.80;66.20;;;;;;5033486;28;20962;-65
2022/10/06 12:49:30;;;;;;;2.70;2.43;;;20.80;67.60;;;;;;5034156;28;20444;-65
2022/10/06 12:51:58;;;;;;;4.37;2.00;;;20.70;66.40;;;;;;5035025;28;20766;-65
2022/10/06 12:54:41;;;;;;;5.17;2.50;;;20.60;67.10;;;;;;5035266;28;20413;-65
2022/10/06 12:57:17;;;;;;;5.40;2.80;;;20.50;66.00;;;;;;5033540;28;20433;-65
2022/10/06 12:59:43;;;;;;;4.07;2.73;;;20.50;66.40;;;;;;5035286;28;20455;-65
2022/10/06 13:02:20;;;;;;;3.37;3.07;;;20.40;67.90;;;;;;5032831;28;20436;-65
2022/10/06 13:04:52;;;;;;;4.90;2.70;;;20.30;65.70;;;;;;5033776;28;20197;-65
2022/10/06 13:07:30;;;;;;;5.73;3.87;;;20.20;65.90;;;;;;5035424;28;20464;-65
2022/10/06 13:10:14;;;;;;;4.03;2.60;;;20.10;66.70;;;;;;5033838;28;20429;-65
2022/10/06 13:12:45;;;;;;;3.20;2.70;;;20.00;68.60;;;;;;4954352;29;21012;-65
2022/10/06 13:15:22;;;;;;;3.90;3.60;;;20.00;69.50;;;;;;4954592;29;20424;-65
2022/10/06 13:17:54;;;;;;;5.07;4.20;;;20.00;70.40;;;;;;4953845;29;20452;-65
2022/10/06 13:20:32;;;;;;;76.27;58.40;;;19.90;79.40;;;;;;4916627;29;20742;-68